sensor_id;sensor_type;location;lat;lon;timestamp;pressure;altitude;pressure_sealevel;temperature;humidity
77975;BME280;67164;51.202;0.278;2023-06-19T00:00:59;100576.83;;;25.72;44.38
77975;BME280;67164;51.202;0.278;2023-06-19T00:03:25;100583.07;;;25.78;44.26
77975;BME280;67164;51.202;0.278;2023-06-19T00:05:50;100582.56;;;25.74;44.29
77975;BME280;67164;51.202;0.278;2023-06-19T00:08:16;100590.43;;;25.91;44.35
77975;BME280;67164;51.202;0.278;2023-06-19T00:10:41;100593.79;;;25.90;44.01
77975;BME280;67164;51.202;0.278;2023-06-19T00:13:07;100595.52;;;25.66;44.35
77975;BME280;67164;51.202;0.278;2023-06-19T00:15:33;100596.76;;;25.74;44.26
77975;BME280;67164;51.202;0.278;2023-06-19T00:17:58;100597.04;;;25.68;44.26
77975;BME280;67164;51.202;0.278;2023-06-19T00:20:24;100600.22;;;25.69;44.23
77975;BME280;67164;51.202;0.278;2023-06-19T00:22:50;100603.27;;;25.81;44.04
77975;BME280;67164;51.202;0.278;2023-06-19T00:25:15;100603.96;;;25.68;44.23
77975;BME280;67164;51.202;0.278;2023-06-19T00:27:41;100607.37;;;25.63;44.62
77975;BME280;67164;51.202;0.278;2023-06-19T00:32:32;100607.47;;;25.78;44.35
77975;BME280;67164;51.202;0.278;2023-06-19T00:34:57;100607.00;;;25.48;44.42
77975;BME280;67164;51.202;0.278;2023-06-19T00:37:23;100609.39;;;25.57;43.93
77975;BME280;67164;51.202;0.278;2023-06-19T00:39:49;100611.22;;;25.70;44.00
77975;BME280;67164;51.202;0.278;2023-06-19T00:42:14;100613.97;;;25.92;44.01
77975;BME280;67164;51.202;0.278;2023-06-19T00:44:40;100614.45;;;26.04;43.84
77975;BME280;67164;51.202;0.278;2023-06-19T00:47:06;100617.15;;;25.76;43.88
77975;BME280;67164;51.202;0.278;2023-06-19T00:49:31;100612.81;;;25.70;43.97
77975;BME280;67164;51.202;0.278;2023-06-19T00:51:57;100609.54;;;25.45;44.30
77975;BME280;67164;51.202;0.278;2023-06-19T00:54:22;100613.16;;;25.28;44.15
77975;BME280;67164;51.202;0.278;2023-06-19T00:56:48;100617.16;;;25.63;44.05
77975;BME280;67164;51.202;0.278;2023-06-19T00:59:16;100613.01;;;25.51;44.12
77975;BME280;67164;51.202;0.278;2023-06-19T01:01:39;100611.94;;;25.62;43.92
77975;BME280;67164;51.202;0.278;2023-06-19T01:04:04;100608.69;;;25.60;43.93
77975;BME280;67164;51.202;0.278;2023-06-19T01:06:37;100612.77;;;25.50;44.08
77975;BME280;67164;51.202;0.278;2023-06-19T01:09:00;100619.45;;;25.71;43.78
77975;BME280;67164;51.202;0.278;2023-06-19T01:11:26;100620.88;;;26.09;43.52
77975;BME280;67164;51.202;0.278;2023-06-19T01:13:53;100621.94;;;25.67;43.75
77975;BME280;67164;51.202;0.278;2023-06-19T01:16:13;100620.39;;;25.99;43.60
77975;BME280;67164;51.202;0.278;2023-06-19T01:18:39;100618.65;;;25.64;43.76
77975;BME280;67164;51.202;0.278;2023-06-19T01:21:11;100619.13;;;25.76;43.90
77975;BME280;67164;51.202;0.278;2023-06-19T01:23:30;100621.78;;;25.53;43.88
77975;BME280;67164;51.202;0.278;2023-06-19T01:25:55;100623.73;;;25.75;43.93
77975;BME280;67164;51.202;0.278;2023-06-19T01:28:21;100626.86;;;25.68;43.65
77975;BME280;67164;51.202;0.278;2023-06-19T01:30:47;100630.59;;;25.48;43.96
77975;BME280;67164;51.202;0.278;2023-06-19T01:33:17;100629.45;;;25.89;43.71
77975;BME280;67164;51.202;0.278;2023-06-19T01:35:40;100630.69;;;25.37;44.06
77975;BME280;67164;51.202;0.278;2023-06-19T01:38:03;100632.08;;;25.58;43.78
77975;BME280;67164;51.202;0.278;2023-06-19T01:40:30;100632.43;;;25.42;43.94
77975;BME280;67164;51.202;0.278;2023-06-19T01:42:55;100629.58;;;25.36;44.05
77975;BME280;67164;51.202;0.278;2023-06-19T01:45:21;100627.77;;;25.65;43.96
77975;BME280;67164;51.202;0.278;2023-06-19T01:47:47;100622.58;;;25.45;43.89
77975;BME280;67164;51.202;0.278;2023-06-19T01:50:12;100620.88;;;25.26;44.12
77975;BME280;67164;51.202;0.278;2023-06-19T01:52:38;100618.69;;;25.47;43.84
77975;BME280;67164;51.202;0.278;2023-06-19T01:55:03;100626.34;;;25.13;43.96
77975;BME280;67164;51.202;0.278;2023-06-19T01:57:28;100632.37;;;25.37;43.97
77975;BME280;67164;51.202;0.278;2023-06-19T01:59:53;100630.27;;;25.34;43.95
77975;BME280;67164;51.202;0.278;2023-06-19T02:02:19;100628.89;;;25.14;43.89
77975;BME280;67164;51.202;0.278;2023-06-19T02:04:44;100629.39;;;25.24;44.13
77975;BME280;67164;51.202;0.278;2023-06-19T02:07:11;100631.20;;;25.62;43.89
77975;BME280;67164;51.202;0.278;2023-06-19T02:09:37;100629.44;;;25.43;43.81
77975;BME280;67164;51.202;0.278;2023-06-19T02:12:02;100629.52;;;25.34;43.85
77975;BME280;67164;51.202;0.278;2023-06-19T02:14:28;100628.28;;;25.31;43.90
77975;BME280;67164;51.202;0.278;2023-06-19T02:16:53;100624.98;;;25.46;43.63
77975;BME280;67164;51.202;0.278;2023-06-19T02:19:19;100621.10;;;25.50;43.58
77975;BME280;67164;51.202;0.278;2023-06-19T02:21:45;100628.03;;;25.33;43.80
77975;BME280;67164;51.202;0.278;2023-06-19T02:24:10;100633.73;;;25.67;43.67
77975;BME280;67164;51.202;0.278;2023-06-19T02:26:36;100643.21;;;25.19;43.98
77975;BME280;67164;51.202;0.278;2023-06-19T02:29:01;100649.04;;;25.38;43.68
77975;BME280;67164;51.202;0.278;2023-06-19T02:31:27;100649.85;;;25.80;43.77
77975;BME280;67164;51.202;0.278;2023-06-19T02:33:52;100652.26;;;25.38;43.65
77975;BME280;67164;51.202;0.278;2023-06-19T02:36:18;100651.59;;;25.55;43.70
77975;BME280;67164;51.202;0.278;2023-06-19T02:38:44;100654.14;;;25.25;43.79
77975;BME280;67164;51.202;0.278;2023-06-19T02:41:09;100656.01;;;25.81;43.66
77975;BME280;67164;51.202;0.278;2023-06-19T02:43:35;100662.11;;;25.57;43.62
77975;BME280;67164;51.202;0.278;2023-06-19T02:46:01;100666.91;;;25.31;43.62
77975;BME280;67164;51.202;0.278;2023-06-19T02:48:28;100669.92;;;25.22;43.76
77975;BME280;67164;51.202;0.278;2023-06-19T02:50:52;100670.66;;;25.51;43.64
77975;BME280;67164;51.202;0.278;2023-06-19T02:53:18;100677.61;;;25.34;43.55
77975;BME280;67164;51.202;0.278;2023-06-19T02:55:43;100682.06;;;25.33;43.52
77975;BME280;67164;51.202;0.278;2023-06-19T02:58:09;100685.61;;;25.58;43.52
77975;BME280;67164;51.202;0.278;2023-06-19T03:00:35;100690.36;;;25.87;43.38
77975;BME280;67164;51.202;0.278;2023-06-19T03:03:01;100693.33;;;25.64;43.35
77975;BME280;67164;51.202;0.278;2023-06-19T03:05:26;100697.80;;;25.22;43.60
77975;BME280;67164;51.202;0.278;2023-06-19T03:07:52;100704.26;;;25.32;43.46
77975;BME280;67164;51.202;0.278;2023-06-19T03:10:17;100712.48;;;25.68;43.57
77975;BME280;67164;51.202;0.278;2023-06-19T03:12:43;100714.77;;;25.15;43.60
77975;BME280;67164;51.202;0.278;2023-06-19T03:15:09;100719.16;;;25.35;43.30
77975;BME280;67164;51.202;0.278;2023-06-19T03:17:34;100722.16;;;25.07;43.66
77975;BME280;67164;51.202;0.278;2023-06-19T03:20:00;100727.54;;;25.24;43.43
77975;BME280;67164;51.202;0.278;2023-06-19T03:22:26;100725.11;;;25.55;43.32
77975;BME280;67164;51.202;0.278;2023-06-19T03:24:52;100728.28;;;25.55;43.63
77975;BME280;67164;51.202;0.278;2023-06-19T03:27:18;100728.71;;;25.35;43.52
77975;BME280;67164;51.202;0.278;2023-06-19T03:29:42;100728.04;;;25.50;43.62
77975;BME280;67164;51.202;0.278;2023-06-19T03:32:08;100732.57;;;25.22;43.66
77975;BME280;67164;51.202;0.278;2023-06-19T03:34:33;100732.71;;;25.23;43.63
77975;BME280;67164;51.202;0.278;2023-06-19T03:36:58;100733.00;;;25.18;43.70
77975;BME280;67164;51.202;0.278;2023-06-19T03:39:24;100738.89;;;24.95;43.69
77975;BME280;67164;51.202;0.278;2023-06-19T03:41:50;100740.34;;;25.11;43.74
77975;BME280;67164;51.202;0.278;2023-06-19T03:44:16;100743.94;;;25.38;43.37
77975;BME280;67164;51.202;0.278;2023-06-19T03:46:41;100745.69;;;25.37;43.69
77975;BME280;67164;51.202;0.278;2023-06-19T03:49:07;100752.04;;;25.15;43.36
77975;BME280;67164;51.202;0.278;2023-06-19T03:51:33;100754.88;;;25.21;43.24
77975;BME280;67164;51.202;0.278;2023-06-19T03:53:58;100752.89;;;25.05;43.45
77975;BME280;67164;51.202;0.278;2023-06-19T03:56:24;100754.81;;;25.38;43.29
77975;BME280;67164;51.202;0.278;2023-06-19T03:58:49;100759.78;;;25.04;43.39
77975;BME280;67164;51.202;0.278;2023-06-19T04:01:15;100760.96;;;24.86;43.63
77975;BME280;67164;51.202;0.278;2023-06-19T04:03:40;100769.43;;;25.03;43.41
77975;BME280;67164;51.202;0.278;2023-06-19T04:06:06;100774.53;;;24.95;43.50
77975;BME280;67164;51.202;0.278;2023-06-19T04:08:33;100774.98;;;24.95;43.50
77975;BME280;67164;51.202;0.278;2023-06-19T04:10:57;100779.47;;;25.22;43.43
77975;BME280;67164;51.202;0.278;2023-06-19T04:13:22;100778.93;;;24.86;43.57
77975;BME280;67164;51.202;0.278;2023-06-19T04:15:48;100780.98;;;25.14;43.52
77975;BME280;67164;51.202;0.278;2023-06-19T04:18:14;100780.77;;;25.08;43.63
77975;BME280;67164;51.202;0.278;2023-06-19T04:20:39;100780.43;;;25.44;43.44
77975;BME280;67164;51.202;0.278;2023-06-19T04:23:05;100788.32;;;25.25;43.69
77975;BME280;67164;51.202;0.278;2023-06-19T04:25:31;100791.58;;;25.38;43.55
77975;BME280;67164;51.202;0.278;2023-06-19T04:27:56;100791.64;;;25.05;43.66
77975;BME280;67164;51.202;0.278;2023-06-19T04:30:22;100793.07;;;25.11;43.57
77975;BME280;67164;51.202;0.278;2023-06-19T04:32:47;100794.26;;;25.24;43.72
77975;BME280;67164;51.202;0.278;2023-06-19T04:35:13;100795.05;;;25.24;43.73
77975;BME280;67164;51.202;0.278;2023-06-19T04:37:39;100799.08;;;24.71;43.80
77975;BME280;67164;51.202;0.278;2023-06-19T04:40:06;100800.43;;;24.82;43.63
77975;BME280;67164;51.202;0.278;2023-06-19T04:42:30;100804.19;;;25.16;43.82
77975;BME280;67164;51.202;0.278;2023-06-19T04:44:56;100799.39;;;25.01;43.71
77975;BME280;67164;51.202;0.278;2023-06-19T04:47:23;100801.72;;;24.97;43.41
77975;BME280;67164;51.202;0.278;2023-06-19T04:49:47;100805.29;;;24.69;43.80
77975;BME280;67164;51.202;0.278;2023-06-19T04:52:13;100802.61;;;25.08;43.94
77975;BME280;67164;51.202;0.278;2023-06-19T04:54:38;100800.41;;;24.91;43.90
77975;BME280;67164;51.202;0.278;2023-06-19T04:57:04;100799.09;;;25.14;43.58
77975;BME280;67164;51.202;0.278;2023-06-19T04:59:30;100799.62;;;25.28;43.70
77975;BME280;67164;51.202;0.278;2023-06-19T05:01:55;100800.77;;;24.89;43.90
77975;BME280;67164;51.202;0.278;2023-06-19T05:04:21;100797.15;;;24.61;43.95
77975;BME280;67164;51.202;0.278;2023-06-19T05:06:46;100795.87;;;25.11;43.92
77975;BME280;67164;51.202;0.278;2023-06-19T05:09:12;100792.67;;;25.23;43.75
77975;BME280;67164;51.202;0.278;2023-06-19T05:11:37;100789.71;;;24.98;43.78
77975;BME280;67164;51.202;0.278;2023-06-19T05:14:03;100788.14;;;24.73;43.81
77975;BME280;67164;51.202;0.278;2023-06-19T05:16:28;100790.79;;;25.09;43.96
77975;BME280;67164;51.202;0.278;2023-06-19T05:18:54;100791.95;;;24.91;43.91
77975;BME280;67164;51.202;0.278;2023-06-19T05:21:20;100797.32;;;24.92;43.89
77975;BME280;67164;51.202;0.278;2023-06-19T05:23:46;100798.12;;;25.22;43.78
77975;BME280;67164;51.202;0.278;2023-06-19T05:26:11;100800.37;;;24.90;43.90
77975;BME280;67164;51.202;0.278;2023-06-19T05:28:36;100798.46;;;24.97;43.79
77975;BME280;67164;51.202;0.278;2023-06-19T05:31:02;100801.00;;;25.22;43.80
77975;BME280;67164;51.202;0.278;2023-06-19T05:33:28;100804.02;;;25.01;43.76
77975;BME280;67164;51.202;0.278;2023-06-19T05:35:54;100803.79;;;24.99;43.76
77975;BME280;67164;51.202;0.278;2023-06-19T05:38:19;100798.00;;;24.47;44.41
77975;BME280;67164;51.202;0.278;2023-06-19T05:40:45;100795.55;;;25.42;43.73
77975;BME280;67164;51.202;0.278;2023-06-19T05:43:10;100795.31;;;24.20;44.92
77975;BME280;67164;51.202;0.278;2023-06-19T05:45:36;100807.01;;;25.18;44.31
77975;BME280;67164;51.202;0.278;2023-06-19T05:48:02;100805.29;;;24.97;44.76
77975;BME280;67164;51.202;0.278;2023-06-19T05:50:27;100808.43;;;23.88;46.17
77975;BME280;67164;51.202;0.278;2023-06-19T05:52:53;100804.70;;;24.67;45.51
77975;BME280;67164;51.202;0.278;2023-06-19T05:55:19;100799.78;;;24.48;45.05
77975;BME280;67164;51.202;0.278;2023-06-19T05:57:45;100798.97;;;25.23;44.72
77975;BME280;67164;51.202;0.278;2023-06-19T06:00:11;100799.08;;;25.11;44.85
77975;BME280;67164;51.202;0.278;2023-06-19T06:02:36;100797.28;;;25.26;44.60
77975;BME280;67164;51.202;0.278;2023-06-19T06:05:01;100797.14;;;24.74;44.68
77975;BME280;67164;51.202;0.278;2023-06-19T06:07:27;100799.41;;;25.03;44.83
77975;BME280;67164;51.202;0.278;2023-06-19T06:09:53;100795.64;;;24.98;44.58
77975;BME280;67164;51.202;0.278;2023-06-19T06:12:18;100798.44;;;24.92;44.69
77975;BME280;67164;51.202;0.278;2023-06-19T06:14:43;100798.36;;;25.27;44.47
77975;BME280;67164;51.202;0.278;2023-06-19T06:17:09;100800.83;;;24.88;44.76
77975;BME280;67164;51.202;0.278;2023-06-19T06:19:34;100799.74;;;25.07;44.45
77975;BME280;67164;51.202;0.278;2023-06-19T06:21:59;100807.22;;;24.65;44.78
77975;BME280;67164;51.202;0.278;2023-06-19T06:24:25;100813.74;;;25.23;44.58
77975;BME280;67164;51.202;0.278;2023-06-19T06:26:50;100816.03;;;24.62;44.83
77975;BME280;67164;51.202;0.278;2023-06-19T06:29:16;100819.75;;;25.20;44.75
77975;BME280;67164;51.202;0.278;2023-06-19T06:31:41;100819.81;;;24.90;44.73
77975;BME280;67164;51.202;0.278;2023-06-19T06:34:07;100821.81;;;25.10;44.31
77975;BME280;67164;51.202;0.278;2023-06-19T06:36:38;100818.98;;;24.79;44.35
77975;BME280;67164;51.202;0.278;2023-06-19T06:38:58;100815.25;;;24.90;44.65
77975;BME280;67164;51.202;0.278;2023-06-19T06:41:23;100818.63;;;25.03;44.47
77975;BME280;67164;51.202;0.278;2023-06-19T06:43:49;100820.37;;;25.08;44.28
77975;BME280;67164;51.202;0.278;2023-06-19T06:46:15;100825.35;;;25.02;44.32
77975;BME280;67164;51.202;0.278;2023-06-19T06:48:40;100829.50;;;25.51;43.93
77975;BME280;67164;51.202;0.278;2023-06-19T06:51:06;100831.40;;;25.15;44.13
77975;BME280;67164;51.202;0.278;2023-06-19T06:53:31;100836.49;;;25.36;43.82
77975;BME280;67164;51.202;0.278;2023-06-19T06:55:57;100836.16;;;25.38;44.16
77975;BME280;67164;51.202;0.278;2023-06-19T06:58:22;100836.70;;;25.25;44.23
77975;BME280;67164;51.202;0.278;2023-06-19T07:00:47;100836.97;;;25.34;44.52
77975;BME280;67164;51.202;0.278;2023-06-19T07:03:13;100831.55;;;25.01;44.64
77975;BME280;67164;51.202;0.278;2023-06-19T07:05:39;100833.82;;;25.16;44.55
77975;BME280;67164;51.202;0.278;2023-06-19T07:08:05;100834.13;;;24.83;45.11
77975;BME280;67164;51.202;0.278;2023-06-19T07:10:31;100836.49;;;25.01;44.94
77975;BME280;67164;51.202;0.278;2023-06-19T07:12:56;100843.18;;;25.50;44.37
77975;BME280;67164;51.202;0.278;2023-06-19T07:15:21;100846.93;;;25.50;44.47
77975;BME280;67164;51.202;0.278;2023-06-19T07:17:47;100850.89;;;25.30;45.33
77975;BME280;67164;51.202;0.278;2023-06-19T07:20:13;100849.04;;;25.35;45.14
77975;BME280;67164;51.202;0.278;2023-06-19T07:22:38;100851.71;;;25.24;44.93
77975;BME280;67164;51.202;0.278;2023-06-19T07:25:04;100856.36;;;25.38;45.26
77975;BME280;67164;51.202;0.278;2023-06-19T07:27:29;100860.78;;;24.64;46.10
77975;BME280;67164;51.202;0.278;2023-06-19T07:29:54;100861.69;;;25.19;45.59
77975;BME280;67164;51.202;0.278;2023-06-19T07:32:19;100858.49;;;24.85;45.68
77975;BME280;67164;51.202;0.278;2023-06-19T07:34:45;100861.06;;;25.18;45.61
77975;BME280;67164;51.202;0.278;2023-06-19T07:37:11;100859.52;;;25.27;45.59
77975;BME280;67164;51.202;0.278;2023-06-19T07:39:37;100860.36;;;25.16;46.07
77975;BME280;67164;51.202;0.278;2023-06-19T07:42:02;100863.70;;;25.01;46.98
77975;BME280;67164;51.202;0.278;2023-06-19T07:44:28;100865.08;;;24.40;47.77
77975;BME280;67164;51.202;0.278;2023-06-19T07:46:54;100868.00;;;24.67;47.82
77975;BME280;67164;51.202;0.278;2023-06-19T07:49:20;100875.05;;;23.51;49.79
77975;BME280;67164;51.202;0.278;2023-06-19T07:51:45;100874.03;;;24.36;49.19
77975;BME280;67164;51.202;0.278;2023-06-19T07:54:11;100876.64;;;24.33;48.44
77975;BME280;67164;51.202;0.278;2023-06-19T07:56:36;100880.09;;;24.25;48.34
77975;BME280;67164;51.202;0.278;2023-06-19T07:59:02;100881.17;;;24.61;48.07
77975;BME280;67164;51.202;0.278;2023-06-19T08:01:27;100877.33;;;24.42;48.36
77975;BME280;67164;51.202;0.278;2023-06-19T08:03:52;100876.81;;;24.15;48.49
77975;BME280;67164;51.202;0.278;2023-06-19T08:06:18;100877.42;;;24.60;48.06
77975;BME280;67164;51.202;0.278;2023-06-19T08:08:43;100877.99;;;24.41;48.06
77975;BME280;67164;51.202;0.278;2023-06-19T08:11:09;100877.65;;;25.25;47.39
77975;BME280;67164;51.202;0.278;2023-06-19T08:13:35;100875.32;;;25.02;47.17
77975;BME280;67164;51.202;0.278;2023-06-19T08:16:01;100875.98;;;25.18;46.51
77975;BME280;67164;51.202;0.278;2023-06-19T08:18:26;100875.50;;;25.37;46.25
77975;BME280;67164;51.202;0.278;2023-06-19T08:20:51;100873.05;;;25.79;45.90
77975;BME280;67164;51.202;0.278;2023-06-19T08:23:17;100874.26;;;25.81;45.72
77975;BME280;67164;51.202;0.278;2023-06-19T08:25:42;100874.37;;;25.58;45.77
77975;BME280;67164;51.202;0.278;2023-06-19T08:28:08;100874.64;;;25.75;45.78
77975;BME280;67164;51.202;0.278;2023-06-19T08:30:33;100872.69;;;24.90;46.92
77975;BME280;67164;51.202;0.278;2023-06-19T08:32:58;100878.98;;;25.30;46.54
77975;BME280;67164;51.202;0.278;2023-06-19T08:35:24;100877.65;;;25.21;46.33
77975;BME280;67164;51.202;0.278;2023-06-19T08:37:49;100882.09;;;25.02;47.39
77975;BME280;67164;51.202;0.278;2023-06-19T08:40:14;100876.94;;;25.68;46.42
77975;BME280;67164;51.202;0.278;2023-06-19T08:42:47;100874.11;;;25.41;46.25
77975;BME280;67164;51.202;0.278;2023-06-19T08:45:07;100879.35;;;25.35;46.17
77975;BME280;67164;51.202;0.278;2023-06-19T08:47:32;100877.36;;;25.30;46.25
77975;BME280;67164;51.202;0.278;2023-06-19T08:49:58;100877.73;;;25.27;46.31
77975;BME280;67164;51.202;0.278;2023-06-19T08:52:23;100878.61;;;25.54;45.80
77975;BME280;67164;51.202;0.278;2023-06-19T08:54:48;100881.34;;;25.67;46.07
77975;BME280;67164;51.202;0.278;2023-06-19T08:57:14;100888.02;;;25.83;46.07
77975;BME280;67164;51.202;0.278;2023-06-19T08:59:41;100882.44;;;25.47;46.02
77975;BME280;67164;51.202;0.278;2023-06-19T09:02:06;100887.33;;;26.09;45.80
77975;BME280;67164;51.202;0.278;2023-06-19T09:04:31;100884.59;;;25.65;45.70
77975;BME280;67164;51.202;0.278;2023-06-19T09:06:58;100886.01;;;25.58;45.92
77975;BME280;67164;51.202;0.278;2023-06-19T09:09:24;100887.90;;;25.59;45.75
77975;BME280;67164;51.202;0.278;2023-06-19T09:11:58;100888.12;;;25.58;45.77
77975;BME280;67164;51.202;0.278;2023-06-19T09:14:14;100885.29;;;25.60;45.66
77975;BME280;67164;51.202;0.278;2023-06-19T09:16:40;100888.31;;;25.68;45.53
77975;BME280;67164;51.202;0.278;2023-06-19T09:19:05;100886.48;;;25.52;45.86
77975;BME280;67164;51.202;0.278;2023-06-19T09:21:31;100889.41;;;25.52;45.80
77975;BME280;67164;51.202;0.278;2023-06-19T09:24:03;100888.29;;;25.25;46.17
77975;BME280;67164;51.202;0.278;2023-06-19T09:26:23;100888.97;;;25.26;46.10
77975;BME280;67164;51.202;0.278;2023-06-19T09:28:48;100887.34;;;25.65;45.78
77975;BME280;67164;51.202;0.278;2023-06-19T09:31:13;100885.77;;;25.42;45.71
77975;BME280;67164;51.202;0.278;2023-06-19T09:33:40;100886.47;;;25.61;45.90
77975;BME280;67164;51.202;0.278;2023-06-19T09:36:06;100890.71;;;25.62;45.94
77975;BME280;67164;51.202;0.278;2023-06-19T09:38:32;100894.09;;;25.55;45.78
77975;BME280;67164;51.202;0.278;2023-06-19T09:40:57;100894.80;;;25.53;45.73
77975;BME280;67164;51.202;0.278;2023-06-19T09:43:24;100898.11;;;25.71;45.28
77975;BME280;67164;51.202;0.278;2023-06-19T09:45:49;100902.06;;;25.72;45.29
77975;BME280;67164;51.202;0.278;2023-06-19T09:48:15;100901.87;;;25.53;45.45
77975;BME280;67164;51.202;0.278;2023-06-19T09:50:39;100902.33;;;25.45;45.53
77975;BME280;67164;51.202;0.278;2023-06-19T09:53:05;100908.82;;;25.75;45.43
77975;BME280;67164;51.202;0.278;2023-06-19T09:55:31;100911.24;;;25.55;45.76
77975;BME280;67164;51.202;0.278;2023-06-19T09:57:56;100914.37;;;24.85;46.55
77975;BME280;67164;51.202;0.278;2023-06-19T10:00:22;100911.96;;;24.42;47.26
77975;BME280;67164;51.202;0.278;2023-06-19T10:02:49;100917.79;;;24.57;47.18
77975;BME280;67164;51.202;0.278;2023-06-19T10:05:13;100912.72;;;24.30;47.59
77975;BME280;67164;51.202;0.278;2023-06-19T10:07:41;100917.55;;;24.68;46.94
77975;BME280;67164;51.202;0.278;2023-06-19T10:10:06;100911.30;;;24.28;47.64
77975;BME280;67164;51.202;0.278;2023-06-19T10:12:38;100913.73;;;24.77;46.90
77975;BME280;67164;51.202;0.278;2023-06-19T10:14:56;100909.21;;;24.50;47.32
77975;BME280;67164;51.202;0.278;2023-06-19T10:17:21;100908.66;;;24.45;47.46
77975;BME280;67164;51.202;0.278;2023-06-19T10:19:50;100902.43;;;24.61;47.45
77975;BME280;67164;51.202;0.278;2023-06-19T10:22:19;100907.86;;;24.54;47.59
77975;BME280;67164;51.202;0.278;2023-06-19T10:24:37;100905.49;;;24.60;47.63
77975;BME280;67164;51.202;0.278;2023-06-19T10:27:03;100908.90;;;25.05;47.70
77975;BME280;67164;51.202;0.278;2023-06-19T10:29:38;100915.28;;;24.61;47.65
77975;BME280;67164;51.202;0.278;2023-06-19T10:31:54;100918.34;;;24.80;47.21
77975;BME280;67164;51.202;0.278;2023-06-19T10:34:18;100922.13;;;25.50;46.93
77975;BME280;67164;51.202;0.278;2023-06-19T10:36:44;100919.20;;;24.11;48.24
77975;BME280;67164;51.202;0.278;2023-06-19T10:39:10;100916.60;;;24.18;48.12
77975;BME280;67164;51.202;0.278;2023-06-19T10:41:40;100914.96;;;24.32;48.14
77975;BME280;67164;51.202;0.278;2023-06-19T10:44:08;100912.67;;;24.57;48.15
77975;BME280;67164;51.202;0.278;2023-06-19T10:46:30;100914.77;;;24.70;47.82
77975;BME280;67164;51.202;0.278;2023-06-19T10:48:58;100912.56;;;24.53;48.33
77975;BME280;67164;51.202;0.278;2023-06-19T10:51:18;100920.03;;;24.88;47.70
77975;BME280;67164;51.202;0.278;2023-06-19T10:53:49;100917.68;;;24.73;48.28
77975;BME280;67164;51.202;0.278;2023-06-19T10:56:09;100913.46;;;24.68;48.35
77975;BME280;67164;51.202;0.278;2023-06-19T10:58:35;100913.78;;;24.43;48.21
77975;BME280;67164;51.202;0.278;2023-06-19T11:01:00;100917.72;;;24.96;47.19
77975;BME280;67164;51.202;0.278;2023-06-19T11:03:26;100915.22;;;24.89;47.28
77975;BME280;67164;51.202;0.278;2023-06-19T11:05:51;100924.07;;;25.02;47.42
77975;BME280;67164;51.202;0.278;2023-06-19T11:08:19;100920.74;;;24.97;46.99
77975;BME280;67164;51.202;0.278;2023-06-19T11:10:42;100918.98;;;24.74;47.43
77975;BME280;67164;51.202;0.278;2023-06-19T11:13:14;100924.30;;;24.74;47.63
77975;BME280;67164;51.202;0.278;2023-06-19T11:15:35;100921.95;;;24.30;48.31
77975;BME280;67164;51.202;0.278;2023-06-19T11:18:01;100924.40;;;24.51;48.17
77975;BME280;67164;51.202;0.278;2023-06-19T11:20:25;100915.92;;;24.34;48.39
77975;BME280;67164;51.202;0.278;2023-06-19T11:22:55;100918.23;;;24.77;48.49
77975;BME280;67164;51.202;0.278;2023-06-19T11:25:21;100911.42;;;24.42;48.29
77975;BME280;67164;51.202;0.278;2023-06-19T11:27:42;100913.66;;;24.35;48.46
77975;BME280;67164;51.202;0.278;2023-06-19T11:30:08;100919.78;;;24.55;48.55
77975;BME280;67164;51.202;0.278;2023-06-19T11:32:34;100915.50;;;24.57;48.58
77975;BME280;67164;51.202;0.278;2023-06-19T11:35:07;100912.09;;;24.54;48.68
77975;BME280;67164;51.202;0.278;2023-06-19T11:37:24;100906.00;;;24.38;48.41
77975;BME280;67164;51.202;0.278;2023-06-19T11:39:50;100909.34;;;24.66;48.44
77975;BME280;67164;51.202;0.278;2023-06-19T11:42:20;100903.43;;;24.95;47.59
77975;BME280;67164;51.202;0.278;2023-06-19T11:44:53;100912.04;;;24.55;48.07
77975;BME280;67164;51.202;0.278;2023-06-19T11:47:10;100912.75;;;24.79;47.79
77975;BME280;67164;51.202;0.278;2023-06-19T11:49:35;100907.67;;;24.67;47.96
77975;BME280;67164;51.202;0.278;2023-06-19T11:51:57;100908.48;;;24.60;47.99
77975;BME280;67164;51.202;0.278;2023-06-19T11:54:24;100910.21;;;24.28;48.52
77975;BME280;67164;51.202;0.278;2023-06-19T11:56:49;100901.15;;;24.71;48.24
77975;BME280;67164;51.202;0.278;2023-06-19T11:59:15;100898.60;;;24.95;47.75
77975;BME280;67164;51.202;0.278;2023-06-19T12:01:45;100893.50;;;24.87;47.48
77975;BME280;67164;51.202;0.278;2023-06-19T12:04:06;100898.47;;;25.01;48.09
77975;BME280;67164;51.202;0.278;2023-06-19T12:06:32;100896.18;;;24.68;48.22
77975;BME280;67164;51.202;0.278;2023-06-19T12:09:07;100896.76;;;24.68;47.85
77975;BME280;67164;51.202;0.278;2023-06-19T12:11:28;100898.28;;;24.79;48.08
77975;BME280;67164;51.202;0.278;2023-06-19T12:13:59;100901.08;;;24.47;48.22
77975;BME280;67164;51.202;0.278;2023-06-19T12:16:29;100905.15;;;24.70;47.84
77975;BME280;67164;51.202;0.278;2023-06-19T12:18:40;100904.22;;;24.42;48.20
77975;BME280;67164;51.202;0.278;2023-06-19T12:21:06;100899.67;;;24.86;47.91
77975;BME280;67164;51.202;0.278;2023-06-19T12:23:31;100895.29;;;24.49;47.96
77975;BME280;67164;51.202;0.278;2023-06-19T12:25:57;100893.77;;;24.63;48.36
77975;BME280;67164;51.202;0.278;2023-06-19T12:28:23;100897.73;;;24.34;48.98
77975;BME280;67164;51.202;0.278;2023-06-19T12:30:48;100892.13;;;24.71;48.52
77975;BME280;67164;51.202;0.278;2023-06-19T12:33:13;100900.18;;;24.75;47.91
77975;BME280;67164;51.202;0.278;2023-06-19T12:35:40;100894.58;;;24.57;48.30
77975;BME280;67164;51.202;0.278;2023-06-19T12:38:05;100891.53;;;24.62;47.95
77975;BME280;67164;51.202;0.278;2023-06-19T12:40:31;100888.33;;;24.37;47.39
77975;BME280;67164;51.202;0.278;2023-06-19T12:42:56;100888.37;;;24.51;47.11